sensor_id;sensor_type;location;lat;lon;timestamp;temperature;humidity
43185;DHT22;28803;52.308;19.096;2023-04-08T00:01:03;5.30;99.90
43185;DHT22;28803;52.308;19.096;2023-04-08T00:03:30;5.20;99.90
43185;DHT22;28803;52.308;19.096;2023-04-08T00:05:59;5.20;99.90
43185;DHT22;28803;52.308;19.096;2023-04-08T00:08:29;5.20;99.90
43185;DHT22;28803;52.308;19.096;2023-04-08T00:10:56;5.30;99.90
43185;DHT22;28803;52.308;19.096;2023-04-08T00:13:24;5.30;99.90
43185;DHT22;28803;52.308;19.096;2023-04-08T00:15:52;5.30;99.90
43185;DHT22;28803;52.308;19.096;2023-04-08T00:18:19;5.30;99.90
43185;DHT22;28803;52.308;19.096;2023-04-08T00:20:46;5.40;99.90
43185;DHT22;28803;52.308;19.096;2023-04-08T00:23:14;5.40;99.90
43185;DHT22;28803;52.308;19.096;2023-04-08T00:25:41;5.50;99.90
43185;DHT22;28803;52.308;19.096;2023-04-08T00:28:08;5.40;99.90
43185;DHT22;28803;52.308;19.096;2023-04-08T00:30:35;5.40;99.90
43185;DHT22;28803;52.308;19.096;2023-04-08T00:33:03;5.40;99.90
43185;DHT22;28803;52.308;19.096;2023-04-08T00:35:30;5.30;99.90
43185;DHT22;28803;52.308;19.096;2023-04-08T00:37:57;5.30;99.90
43185;DHT22;28803;52.308;19.096;2023-04-08T00:40:24;5.30;99.90
43185;DHT22;28803;52.308;19.096;2023-04-08T00:42:52;5.30;99.90
43185;DHT22;28803;52.308;19.096;2023-04-08T00:45:19;5.30;99.90
43185;DHT22;28803;52.308;19.096;2023-04-08T00:47:46;5.30;99.90
43185;DHT22;28803;52.308;19.096;2023-04-08T00:50:18;5.30;99.90
43185;DHT22;28803;52.308;19.096;2023-04-08T00:52:46;5.30;99.90
43185;DHT22;28803;52.308;19.096;2023-04-08T00:55:14;5.30;99.90
43185;DHT22;28803;52.308;19.096;2023-04-08T00:57:41;5.30;99.90
43185;DHT22;28803;52.308;19.096;2023-04-08T01:00:09;5.30;99.90
43185;DHT22;28803;52.308;19.096;2023-04-08T01:08:24;5.20;99.90
43185;DHT22;28803;52.308;19.096;2023-04-08T01:10:55;5.20;99.90
43185;DHT22;28803;52.308;19.096;2023-04-08T01:13:25;5.10;99.90
43185;DHT22;28803;52.308;19.096;2023-04-08T01:15:54;5.10;99.90
43185;DHT22;28803;52.308;19.096;2023-04-08T01:18:23;5.10;99.90
43185;DHT22;28803;52.308;19.096;2023-04-08T01:20:50;5.00;99.90
43185;DHT22;28803;52.308;19.096;2023-04-08T01:23:52;5.10;99.90
43185;DHT22;28803;52.308;19.096;2023-04-08T01:26:12;5.10;99.90
43185;DHT22;28803;52.308;19.096;2023-04-08T01:28:49;5.00;99.90
43185;DHT22;28803;52.308;19.096;2023-04-08T01:31:18;4.90;99.90
43185;DHT22;28803;52.308;19.096;2023-04-08T01:33:47;4.90;99.90
43185;DHT22;28803;52.308;19.096;2023-04-08T01:36:16;4.90;99.90
43185;DHT22;28803;52.308;19.096;2023-04-08T01:38:45;4.90;99.90
43185;DHT22;28803;52.308;19.096;2023-04-08T01:41:12;4.80;99.90
43185;DHT22;28803;52.308;19.096;2023-04-08T01:43:40;4.90;99.90
43185;DHT22;28803;52.308;19.096;2023-04-08T01:46:10;4.80;99.90
43185;DHT22;28803;52.308;19.096;2023-04-08T01:48:39;4.70;99.90
43185;DHT22;28803;52.308;19.096;2023-04-08T01:51:08;4.80;99.90
43185;DHT22;28803;52.308;19.096;2023-04-08T01:53:35;4.70;99.90
43185;DHT22;28803;52.308;19.096;2023-04-08T01:56:06;4.70;99.90
43185;DHT22;28803;52.308;19.096;2023-04-08T01:58:38;4.60;99.90
43185;DHT22;28803;52.308;19.096;2023-04-08T02:01:11;4.70;99.90
43185;DHT22;28803;52.308;19.096;2023-04-08T02:03:41;4.60;99.90
43185;DHT22;28803;52.308;19.096;2023-04-08T02:06:09;4.70;99.90
43185;DHT22;28803;52.308;19.096;2023-04-08T02:08:36;4.60;99.90
43185;DHT22;28803;52.308;19.096;2023-04-08T02:11:03;4.60;99.90
43185;DHT22;28803;52.308;19.096;2023-04-08T02:13:31;4.70;99.90
43185;DHT22;28803;52.308;19.096;2023-04-08T02:16:22;4.70;99.90
43185;DHT22;28803;52.308;19.096;2023-04-08T02:19:07;4.60;99.90
43185;DHT22;28803;52.308;19.096;2023-04-08T02:21:43;4.60;99.90
43185;DHT22;28803;52.308;19.096;2023-04-08T02:24:13;4.60;99.90
43185;DHT22;28803;52.308;19.096;2023-04-08T02:26:42;4.60;99.90
43185;DHT22;28803;52.308;19.096;2023-04-08T02:29:14;4.60;99.90
43185;DHT22;28803;52.308;19.096;2023-04-08T02:31:43;4.60;99.90
43185;DHT22;28803;52.308;19.096;2023-04-08T02:34:11;4.60;99.90
43185;DHT22;28803;52.308;19.096;2023-04-08T02:36:39;4.60;99.90
43185;DHT22;28803;52.308;19.096;2023-04-08T02:39:08;4.60;99.90
43185;DHT22;28803;52.308;19.096;2023-04-08T02:41:35;4.60;99.90
43185;DHT22;28803;52.308;19.096;2023-04-08T02:44:03;4.60;99.90
43185;DHT22;28803;52.308;19.096;2023-04-08T02:46:32;4.60;99.90
43185;DHT22;28803;52.308;19.096;2023-04-08T02:49:00;4.40;99.90
43185;DHT22;28803;52.308;19.096;2023-04-08T02:51:27;4.60;99.90
43185;DHT22;28803;52.308;19.096;2023-04-08T02:53:54;4.60;99.90
43185;DHT22;28803;52.308;19.096;2023-04-08T02:56:21;4.50;99.90
43185;DHT22;28803;52.308;19.096;2023-04-08T02:58:49;4.50;99.90
43185;DHT22;28803;52.308;19.096;2023-04-08T03:01:18;4.50;99.90
43185;DHT22;28803;52.308;19.096;2023-04-08T03:03:45;4.50;99.90
43185;DHT22;28803;52.308;19.096;2023-04-08T03:06:12;4.50;99.90
43185;DHT22;28803;52.308;19.096;2023-04-08T03:08:39;4.50;99.90
43185;DHT22;28803;52.308;19.096;2023-04-08T03:11:07;4.50;99.90
43185;DHT22;28803;52.308;19.096;2023-04-08T03:13:35;4.50;99.90
43185;DHT22;28803;52.308;19.096;2023-04-08T03:16:02;4.40;99.90
43185;DHT22;28803;52.308;19.096;2023-04-08T03:18:29;4.40;99.90
43185;DHT22;28803;52.308;19.096;2023-04-08T03:20:56;4.40;99.90
43185;DHT22;28803;52.308;19.096;2023-04-08T03:23:24;4.40;99.90
43185;DHT22;28803;52.308;19.096;2023-04-08T03:25:51;4.40;99.90
43185;DHT22;28803;52.308;19.096;2023-04-08T03:28:18;4.40;99.90
43185;DHT22;28803;52.308;19.096;2023-04-08T03:30:45;4.40;99.90
43185;DHT22;28803;52.308;19.096;2023-04-08T03:33:13;4.40;99.90
43185;DHT22;28803;52.308;19.096;2023-04-08T03:35:40;4.30;99.90
43185;DHT22;28803;52.308;19.096;2023-04-08T03:38:07;4.30;99.90
43185;DHT22;28803;52.308;19.096;2023-04-08T03:40:34;4.30;99.90
43185;DHT22;28803;52.308;19.096;2023-04-08T03:43:02;4.20;99.90
43185;DHT22;28803;52.308;19.096;2023-04-08T03:45:29;4.20;99.90
43185;DHT22;28803;52.308;19.096;2023-04-08T03:47:57;4.20;99.90
43185;DHT22;28803;52.308;19.096;2023-04-08T03:50:24;4.20;99.90
43185;DHT22;28803;52.308;19.096;2023-04-08T03:52:51;4.20;99.90
43185;DHT22;28803;52.308;19.096;2023-04-08T03:55:18;4.20;99.90
43185;DHT22;28803;52.308;19.096;2023-04-08T03:57:45;4.20;99.90
43185;DHT22;28803;52.308;19.096;2023-04-08T04:00:12;4.20;99.90
43185;DHT22;28803;52.308;19.096;2023-04-08T04:02:40;4.10;99.90
43185;DHT22;28803;52.308;19.096;2023-04-08T04:05:07;4.10;99.90
43185;DHT22;28803;52.308;19.096;2023-04-08T04:07:35;4.10;99.90
43185;DHT22;28803;52.308;19.096;2023-04-08T04:10:02;4.10;99.90
43185;DHT22;28803;52.308;19.096;2023-04-08T04:12:29;4.00;99.90
43185;DHT22;28803;52.308;19.096;2023-04-08T04:14:56;4.10;99.90
43185;DHT22;28803;52.308;19.096;2023-04-08T04:17:24;4.00;99.90
43185;DHT22;28803;52.308;19.096;2023-04-08T04:19:51;4.00;99.90
43185;DHT22;28803;52.308;19.096;2023-04-08T04:22:19;4.00;99.90
43185;DHT22;28803;52.308;19.096;2023-04-08T04:24:47;4.00;99.90
43185;DHT22;28803;52.308;19.096;2023-04-08T04:27:15;4.00;99.90
43185;DHT22;28803;52.308;19.096;2023-04-08T04:29:43;4.00;99.90
43185;DHT22;28803;52.308;19.096;2023-04-08T04:32:10;4.20;99.90
43185;DHT22;28803;52.308;19.096;2023-04-08T04:34:37;4.00;99.90
43185;DHT22;28803;52.308;19.096;2023-04-08T04:37:05;4.10;99.90
43185;DHT22;28803;52.308;19.096;2023-04-08T04:39:32;4.20;99.90
43185;DHT22;28803;52.308;19.096;2023-04-08T04:41:59;4.10;99.90
43185;DHT22;28803;52.308;19.096;2023-04-08T04:44:26;4.20;99.90
43185;DHT22;28803;52.308;19.096;2023-04-08T04:46:54;4.20;99.90
43185;DHT22;28803;52.308;19.096;2023-04-08T04:49:21;4.20;99.90
43185;DHT22;28803;52.308;19.096;2023-04-08T04:51:49;4.30;99.90
43185;DHT22;28803;52.308;19.096;2023-04-08T04:54:16;4.30;99.90
43185;DHT22;28803;52.308;19.096;2023-04-08T04:56:43;4.30;99.90
43185;DHT22;28803;52.308;19.096;2023-04-08T04:59:10;4.30;99.90
43185;DHT22;28803;52.308;19.096;2023-04-08T05:01:39;4.40;99.90
43185;DHT22;28803;52.308;19.096;2023-04-08T05:04:07;4.40;99.90
43185;DHT22;28803;52.308;19.096;2023-04-08T05:06:34;4.40;99.90
43185;DHT22;28803;52.308;19.096;2023-04-08T05:09:01;4.40;99.90
43185;DHT22;28803;52.308;19.096;2023-04-08T05:11:29;4.40;99.90
43185;DHT22;28803;52.308;19.096;2023-04-08T05:13:56;4.40;99.90
43185;DHT22;28803;52.308;19.096;2023-04-08T05:16:23;4.40;99.90
43185;DHT22;28803;52.308;19.096;2023-04-08T05:18:50;4.50;99.90
43185;DHT22;28803;52.308;19.096;2023-04-08T05:21:18;4.50;99.90
43185;DHT22;28803;52.308;19.096;2023-04-08T05:23:45;4.50;99.90
43185;DHT22;28803;52.308;19.096;2023-04-08T05:26:13;4.50;98.90
43185;DHT22;28803;52.308;19.096;2023-04-08T05:28:42;4.50;97.20
43185;DHT22;28803;52.308;19.096;2023-04-08T05:31:09;4.50;92.50
43185;DHT22;28803;52.308;19.096;2023-04-08T05:33:37;4.60;89.70
43185;DHT22;28803;52.308;19.096;2023-04-08T05:36:05;4.60;82.80
43185;DHT22;28803;52.308;19.096;2023-04-08T05:38:32;4.50;80.20
43185;DHT22;28803;52.308;19.096;2023-04-08T05:41:00;4.60;81.50
43185;DHT22;28803;52.308;19.096;2023-04-08T05:43:27;4.60;82.50
43185;DHT22;28803;52.308;19.096;2023-04-08T05:45:55;4.70;81.50
43185;DHT22;28803;52.308;19.096;2023-04-08T05:48:22;4.80;72.70
43185;DHT22;28803;52.308;19.096;2023-04-08T05:50:49;4.80;58.00
43185;DHT22;28803;52.308;19.096;2023-04-08T05:53:17;4.80;48.70
43185;DHT22;28803;52.308;19.096;2023-04-08T05:55:44;4.90;34.90
43185;DHT22;28803;52.308;19.096;2023-04-08T05:58:11;5.00;20.10
43185;DHT22;28803;52.308;19.096;2023-04-08T06:00:38;5.00;12.90
43185;DHT22;28803;52.308;19.096;2023-04-08T06:03:06;5.10;1.00
43185;DHT22;28803;52.308;19.096;2023-04-08T06:05:33;5.10;1.00
43185;DHT22;28803;52.308;19.096;2023-04-08T06:08:01;5.20;1.00
43185;DHT22;28803;52.308;19.096;2023-04-08T06:10:28;5.30;1.00
43185;DHT22;28803;52.308;19.096;2023-04-08T06:12:55;5.30;1.00
43185;DHT22;28803;52.308;19.096;2023-04-08T06:15:22;5.40;1.00
43185;DHT22;28803;52.308;19.096;2023-04-08T06:17:49;5.50;1.00
43185;DHT22;28803;52.308;19.096;2023-04-08T06:20:17;5.50;1.00
43185;DHT22;28803;52.308;19.096;2023-04-08T06:22:44;5.60;1.00
43185;DHT22;28803;52.308;19.096;2023-04-08T06:25:12;5.70;1.00
43185;DHT22;28803;52.308;19.096;2023-04-08T06:27:39;5.80;99.90
43185;DHT22;28803;52.308;19.096;2023-04-08T06:30:07;5.80;99.90
43185;DHT22;28803;52.308;19.096;2023-04-08T06:32:34;5.90;99.90
43185;DHT22;28803;52.308;19.096;2023-04-08T06:35:02;6.00;99.90
43185;DHT22;28803;52.308;19.096;2023-04-08T06:37:29;6.00;99.90
43185;DHT22;28803;52.308;19.096;2023-04-08T06:39:56;6.10;99.90
43185;DHT22;28803;52.308;19.096;2023-04-08T06:42:23;6.30;99.90
43185;DHT22;28803;52.308;19.096;2023-04-08T06:44:50;6.60;99.90
43185;DHT22;28803;52.308;19.096;2023-04-08T06:47:17;6.80;1.00
43185;DHT22;28803;52.308;19.096;2023-04-08T06:49:45;7.10;46.10
43185;DHT22;28803;52.308;19.096;2023-04-08T06:52:12;7.40;99.90
43185;DHT22;28803;52.308;19.096;2023-04-08T06:54:41;8.90;99.90
43185;DHT22;28803;52.308;19.096;2023-04-08T06:57:09;9.70;1.00
43185;DHT22;28803;52.308;19.096;2023-04-08T06:59:37;10.60;99.90
43185;DHT22;28803;52.308;19.096;2023-04-08T07:02:04;11.90;99.90
43185;DHT22;28803;52.308;19.096;2023-04-08T07:04:31;12.50;99.90
43185;DHT22;28803;52.308;19.096;2023-04-08T07:06:59;12.50;1.00
43185;DHT22;28803;52.308;19.096;2023-04-08T07:09:26;13.10;1.00
43185;DHT22;28803;52.308;19.096;2023-04-08T07:11:54;13.40;1.00
43185;DHT22;28803;52.308;19.096;2023-04-08T07:14:21;13.50;99.90
43185;DHT22;28803;52.308;19.096;2023-04-08T07:16:48;13.90;1.00
43185;DHT22;28803;52.308;19.096;2023-04-08T07:19:16;14.00;59.50
43185;DHT22;28803;52.308;19.096;2023-04-08T07:21:43;13.80;64.70
43185;DHT22;28803;52.308;19.096;2023-04-08T07:24:10;13.50;66.90
43185;DHT22;28803;52.308;19.096;2023-04-08T07:26:37;14.20;61.90
43185;DHT22;28803;52.308;19.096;2023-04-08T07:29:04;14.40;62.20
43185;DHT22;28803;52.308;19.096;2023-04-08T07:31:32;14.40;57.40
43185;DHT22;28803;52.308;19.096;2023-04-08T07:33:59;14.80;65.80
43185;DHT22;28803;52.308;19.096;2023-04-08T07:36:26;14.50;68.80
43185;DHT22;28803;52.308;19.096;2023-04-08T07:38:54;14.80;67.60
43185;DHT22;28803;52.308;19.096;2023-04-08T07:41:21;15.00;66.80
43185;DHT22;28803;52.308;19.096;2023-04-08T07:43:49;15.20;66.30
43185;DHT22;28803;52.308;19.096;2023-04-08T07:46:16;15.20;66.70
43185;DHT22;28803;52.308;19.096;2023-04-08T07:48:43;14.20;67.70
43185;DHT22;28803;52.308;19.096;2023-04-08T07:51:10;14.10;70.00
43185;DHT22;28803;52.308;19.096;2023-04-08T07:53:38;14.00;66.80
43185;DHT22;28803;52.308;19.096;2023-04-08T07:56:14;14.00;72.60
43185;DHT22;28803;52.308;19.096;2023-04-08T07:58:42;14.10;69.20
43185;DHT22;28803;52.308;19.096;2023-04-08T08:01:20;14.50;70.00
43185;DHT22;28803;52.308;19.096;2023-04-08T08:03:51;15.20;64.90
43185;DHT22;28803;52.308;19.096;2023-04-08T08:06:20;15.50;67.70
43185;DHT22;28803;52.308;19.096;2023-04-08T08:08:48;15.80;64.60
43185;DHT22;28803;52.308;19.096;2023-04-08T08:11:15;15.70;65.60
43185;DHT22;28803;52.308;19.096;2023-04-08T08:13:43;16.50;63.50
43185;DHT22;28803;52.308;19.096;2023-04-08T08:16:10;16.50;58.70
43185;DHT22;28803;52.308;19.096;2023-04-08T08:18:39;16.30;59.50
43185;DHT22;28803;52.308;19.096;2023-04-08T08:21:07;15.40;57.80
43185;DHT22;28803;52.308;19.096;2023-04-08T08:23:35;14.70;62.70
43185;DHT22;28803;52.308;19.096;2023-04-08T08:26:06;15.90;61.00
43185;DHT22;28803;52.308;19.096;2023-04-08T08:28:37;17.00;58.00
43185;DHT22;28803;52.308;19.096;2023-04-08T08:31:04;16.80;57.30
43185;DHT22;28803;52.308;19.096;2023-04-08T08:33:32;17.70;51.80
43185;DHT22;28803;52.308;19.096;2023-04-08T08:35:59;18.70;45.70
43185;DHT22;28803;52.308;19.096;2023-04-08T08:38:27;19.10;45.60
43185;DHT22;28803;52.308;19.096;2023-04-08T08:40:58;19.40;43.10
43185;DHT22;28803;52.308;19.096;2023-04-08T08:43:27;19.30;31.40
43185;DHT22;28803;52.308;19.096;2023-04-08T08:45:54;19.70;19.20
43185;DHT22;28803;52.308;19.096;2023-04-08T08:48:22;17.70;7.10
43185;DHT22;28803;52.308;19.096;2023-04-08T08:50:50;17.20;13.00
43185;DHT22;28803;52.308;19.096;2023-04-08T08:53:17;17.60;10.50
43185;DHT22;28803;52.308;19.096;2023-04-08T08:55:46;17.70;13.90
43185;DHT22;28803;52.308;19.096;2023-04-08T08:58:16;17.40;12.60
43185;DHT22;28803;52.308;19.096;2023-04-08T09:00:43;16.70;6.20
43185;DHT22;28803;52.308;19.096;2023-04-08T09:03:22;17.70;6.30
43185;DHT22;28803;52.308;19.096;2023-04-08T09:05:56;18.10;8.40
43185;DHT22;28803;52.308;19.096;2023-04-08T09:10:55;16.60;15.70
43185;DHT22;28803;52.308;19.096;2023-04-08T09:13:22;15.90;20.50
43185;DHT22;28803;52.308;19.096;2023-04-08T09:16:01;16.60;22.90
43185;DHT22;28803;52.308;19.096;2023-04-08T09:18:32;17.00;20.40
43185;DHT22;28803;52.308;19.096;2023-04-08T09:21:03;17.60;18.70
43185;DHT22;28803;52.308;19.096;2023-04-08T09:23:42;18.50;16.90
43185;DHT22;28803;52.308;19.096;2023-04-08T09:26:21;19.00;14.20
43185;DHT22;28803;52.308;19.096;2023-04-08T09:31:44;17.90;16.10
43185;DHT22;28803;52.308;19.096;2023-04-08T09:34:16;18.30;12.10
43185;DHT22;28803;52.308;19.096;2023-04-08T09:36:46;18.70;1.00
43185;DHT22;28803;52.308;19.096;2023-04-08T09:39:15;20.30;1.00
43185;DHT22;28803;52.308;19.096;2023-04-08T09:41:43;20.30;1.00
43185;DHT22;28803;52.308;19.096;2023-04-08T09:44:10;20.00;1.00
43185;DHT22;28803;52.308;19.096;2023-04-08T09:49:25;17.50;5.40
43185;DHT22;28803;52.308;19.096;2023-04-08T09:52:06;16.00;13.70
43185;DHT22;28803;52.308;19.096;2023-04-08T09:54:51;16.00;20.90
43185;DHT22;28803;52.308;19.096;2023-04-08T10:00:31;16.00;19.40
43185;DHT22;28803;52.308;19.096;2023-04-08T10:03:09;14.80;20.80
43185;DHT22;28803;52.308;19.096;2023-04-08T10:05:40;13.40;32.40
43185;DHT22;28803;52.308;19.096;2023-04-08T10:08:07;12.70;29.00
43185;DHT22;28803;52.308;19.096;2023-04-08T10:10:35;12.50;21.30
43185;DHT22;28803;52.308;19.096;2023-04-08T10:13:04;12.60;44.40
43185;DHT22;28803;52.308;19.096;2023-04-08T10:15:34;12.90;1.00
43185;DHT22;28803;52.308;19.096;2023-04-08T10:23:08;12.80;99.90
43185;DHT22;28803;52.308;19.096;2023-04-08T10:25:39;12.60;99.90
43185;DHT22;28803;52.308;19.096;2023-04-08T10:30:55;12.50;1.00
43185;DHT22;28803;52.308;19.096;2023-04-08T10:36:10;12.70;1.00
43185;DHT22;28803;52.308;19.096;2023-04-08T10:38:38;13.30;99.90
43185;DHT22;28803;52.308;19.096;2023-04-08T10:41:06;13.40;1.00
43185;DHT22;28803;52.308;19.096;2023-04-08T10:43:36;13.40;99.90
43185;DHT22;28803;52.308;19.096;2023-04-08T10:46:04;13.20;1.00
43185;DHT22;28803;52.308;19.096;2023-04-08T10:48:31;13.10;1.00
43185;DHT22;28803;52.308;19.096;2023-04-08T10:51:00;13.10;99.90
43185;DHT22;28803;52.308;19.096;2023-04-08T10:53:34;13.20;1.00
43185;DHT22;28803;52.308;19.096;2023-04-08T10:56:11;13.40;1.00
43185;DHT22;28803;52.308;19.096;2023-04-08T10:58:59;13.40;99.90
43185;DHT22;28803;52.308;19.096;2023-04-08T11:01:37;12.90;99.90
43185;DHT22;28803;52.308;19.096;2023-04-08T11:04:13;12.70;99.90
43185;DHT22;28803;52.308;19.096;2023-04-08T11:06:43;12.60;1.00
43185;DHT22;28803;52.308;19.096;2023-04-08T11:09:11;12.40;99.90
43185;DHT22;28803;52.308;19.096;2023-04-08T11:11:43;12.60;1.00
43185;DHT22;28803;52.308;19.096;2023-04-08T11:14:11;13.10;1.00
43185;DHT22;28803;52.308;19.096;2023-04-08T11:16:39;12.80;1.00
43185;DHT22;28803;52.308;19.096;2023-04-08T11:19:07;12.70;1.00
43185;DHT22;28803;52.308;19.096;2023-04-08T11:21:36;12.40;1.00
43185;DHT22;28803;52.308;19.096;2023-04-08T11:24:10;12.30;1.00
43185;DHT22;28803;52.308;19.096;2023-04-08T11:26:39;12.70;1.00
43185;DHT22;28803;52.308;19.096;2023-04-08T11:29:09;12.70;1.00
43185;DHT22;28803;52.308;19.096;2023-04-08T11:31:41;13.00;1.00
43185;DHT22;28803;52.308;19.096;2023-04-08T11:34:10;13.00;1.00
43185;DHT22;28803;52.308;19.096;2023-04-08T11:36:39;12.70;99.90
43185;DHT22;28803;52.308;19.096;2023-04-08T11:39:10;12.70;1.00
43185;DHT22;28803;52.308;19.096;2023-04-08T11:41:38;12.20;99.90
43185;DHT22;28803;52.308;19.096;2023-04-08T11:44:07;12.10;99.90
43185;DHT22;28803;52.308;19.096;2023-04-08T11:46:34;12.00;1.00
43185;DHT22;28803;52.308;19.096;2023-04-08T11:49:06;12.00;1.00
43185;DHT22;28803;52.308;19.096;2023-04-08T11:54:30;12.60;32.30
43185;DHT22;28803;52.308;19.096;2023-04-08T11:56:58;13.00;90.50
43185;DHT22;28803;52.308;19.096;2023-04-08T11:59:25;13.10;32.90
43185;DHT22;28803;52.308;19.096;2023-04-08T12:01:56;13.00;91.20
43185;DHT22;28803;52.308;19.096;2023-04-08T12:04:23;12.80;1.00
43185;DHT22;28803;52.308;19.096;2023-04-08T12:06:52;12.80;1.00
43185;DHT22;28803;52.308;19.096;2023-04-08T12:09:22;12.70;1.00
43185;DHT22;28803;52.308;19.096;2023-04-08T12:11:49;12.10;1.00
43185;DHT22;28803;52.308;19.096;2023-04-08T12:14:17;12.00;1.00
43185;DHT22;28803;52.308;19.096;2023-04-08T12:16:44;11.70;60.60
43185;DHT22;28803;52.308;19.096;2023-04-08T12:19:11;11.70;92.20
43185;DHT22;28803;52.308;19.096;2023-04-08T12:21:39;11.50;99.90
43185;DHT22;28803;52.308;19.096;2023-04-08T12:24:06;11.50;99.90
43185;DHT22;28803;52.308;19.096;2023-04-08T12:29:01;11.60;99.90
43185;DHT22;28803;52.308;19.096;2023-04-08T12:31:28;11.50;99.90
43185;DHT22;28803;52.308;19.096;2023-04-08T12:33:56;11.60;99.90
43185;DHT22;28803;52.308;19.096;2023-04-08T12:36:23;11.80;99.90
43185;DHT22;28803;52.308;19.096;2023-04-08T12:38:51;11.90;99.90
43185;DHT22;28803;52.308;19.096;2023-04-08T12:41:18;12.00;99.90
43185;DHT22;28803;52.308;19.096;2023-04-08T12:43:45;12.10;23.40
43185;DHT22;28803;52.308;19.096;2023-04-08T12:46:13;12.00;20.20
43185;DHT22;28803;52.308;19.096;2023-04-08T12:48:40;11.90;22.50
43185;DHT22;28803;52.308;19.096;2023-04-08T12:51:08;11.80;1.00
43185;DHT22;28803;52.308;19.096;2023-04-08T12:53:36;11.70;1.00
43185;DHT22;28803;52.308;19.096;2023-04-08T12:56:04;11.60;1.00
43185;DHT22;28803;52.308;19.096;2023-04-08T12:58:31;11.70;76.80
43185;DHT22;28803;52.308;19.096;2023-04-08T13:00:58;11.80;1.00
43185;DHT22;28803;52.308;19.096;2023-04-08T13:03:26;11.80;1.00
43185;DHT22;28803;52.308;19.096;2023-04-08T13:05:56;11.90;1.00
43185;DHT22;28803;52.308;19.096;2023-04-08T13:08:25;12.00;1.00
43185;DHT22;28803;52.308;19.096;2023-04-08T13:10:53;12.10;1.00
43185;DHT22;28803;52.308;19.096;2023-04-08T13:13:21;12.00;99.90
43185;DHT22;28803;52.308;19.096;2023-04-08T13:15:48;12.10;1.00
43185;DHT22;28803;52.308;19.096;2023-04-08T13:18:15;12.20;1.00
43185;DHT22;28803;52.308;19.096;2023-04-08T13:20:43;12.20;1.00
43185;DHT22;28803;52.308;19.096;2023-04-08T13:23:10;12.40;1.00
43185;DHT22;28803;52.308;19.096;2023-04-08T13:25:38;12.50;1.00
43185;DHT22;28803;52.308;19.096;2023-04-08T13:28:05;12.60;99.90
43185;DHT22;28803;52.308;19.096;2023-04-08T13:30:32;12.80;99.90
43185;DHT22;28803;52.308;19.096;2023-04-08T13:32:59;12.90;99.90
43185;DHT22;28803;52.308;19.096;2023-04-08T13:35:27;13.00;99.90
43185;DHT22;28803;52.308;19.096;2023-04-08T13:37:54;13.00;99.90
43185;DHT22;28803;52.308;19.096;2023-04-08T13:40:22;12.80;99.90
43185;DHT22;28803;52.308;19.096;2023-04-08T13:42:49;12.50;99.90
43185;DHT22;28803;52.308;19.096;2023-04-08T13:45:17;12.30;99.90
43185;DHT22;28803;52.308;19.096;2023-04-08T13:47:45;12.20;99.90
43185;DHT22;28803;52.308;19.096;2023-04-08T13:50:13;12.10;99.90
43185;DHT22;28803;52.308;19.096;2023-04-08T13:52:40;11.80;99.90
43185;DHT22;28803;52.308;19.096;2023-04-08T13:55:08;11.60;99.90
43185;DHT22;28803;52.308;19.096;2023-04-08T13:57:35;11.70;1.00
43185;DHT22;28803;52.308;19.096;2023-04-08T14:00:03;11.80;1.00
43185;DHT22;28803;52.308;19.096;2023-04-08T14:02:31;11.80;1.00
43185;DHT22;28803;52.308;19.096;2023-04-08T14:04:59;11.90;1.00
43185;DHT22;28803;52.308;19.096;2023-04-08T14:07:26;12.00;1.00
43185;DHT22;28803;52.308;19.096;2023-04-08T14:09:54;12.00;99.90
43185;DHT22;28803;52.308;19.096;2023-04-08T14:12:21;12.00;99.90
43185;DHT22;28803;52.308;19.096;2023-04-08T14:14:49;12.00;99.90
43185;DHT22;28803;52.308;19.096;2023-04-08T14:17:16;12.10;99.90
43185;DHT22;28803;52.308;19.096;2023-04-08T14:19:44;12.10;99.90
43185;DHT22;28803;52.308;19.096;2023-04-08T14:22:12;12.00;99.90
43185;DHT22;28803;52.308;19.096;2023-04-08T14:24:43;12.00;99.90
43185;DHT22;28803;52.308;19.096;2023-04-08T14:27:11;12.00;99.90
43185;DHT22;28803;52.308;19.096;2023-04-08T14:29:38;12.00;99.90
43185;DHT22;28803;52.308;19.096;2023-04-08T14:32:06;12.10;99.90
43185;DHT22;28803;52.308;19.096;2023-04-08T14:34:33;12.10;99.90
43185;DHT22;28803;52.308;19.096;2023-04-08T14:37:00;12.10;99.90
43185;DHT22;28803;52.308;19.096;2023-04-08T14:39:28;12.10;99.90
43185;DHT22;28803;52.308;19.096;2023-04-08T14:41:55;12.20;99.90
43185;DHT22;28803;52.308;19.096;2023-04-08T14:44:24;12.20;99.90
43185;DHT22;28803;52.308;19.096;2023-04-08T14:46:52;12.10;99.90
43185;DHT22;28803;52.308;19.096;2023-04-08T14:49:20;12.10;99.90
43185;DHT22;28803;52.308;19.096;2023-04-08T14:51:47;12.20;99.90
43185;DHT22;28803;52.308;19.096;2023-04-08T14:54:16;12.20;99.90
43185;DHT22;28803;52.308;19.096;2023-04-08T14:56:44;12.20;99.90
43185;DHT22;28803;52.308;19.096;2023-04-08T14:59:12;12.20;99.90
43185;DHT22;28803;52.308;19.096;2023-04-08T15:01:39;12.30;99.90
43185;DHT22;28803;52.308;19.096;2023-04-08T15:04:08;12.30;99.90
43185;DHT22;28803;52.308;19.096;2023-04-08T15:06:35;12.50;99.90
43185;DHT22;28803;52.308;19.096;2023-04-08T15:09:05;12.50;99.90
43185;DHT22;28803;52.308;19.096;2023-04-08T15:11:32;12.50;99.90
43185;DHT22;28803;52.308;19.096;2023-04-08T15:14:00;12.50;99.90
43185;DHT22;28803;52.308;19.096;2023-04-08T15:16:27;12.50;99.90
43185;DHT22;28803;52.308;19.096;2023-04-08T15:18:55;12.50;99.90
43185;DHT22;28803;52.308;19.096;2023-04-08T15:21:25;12.50;99.90
43185;DHT22;28803;52.308;19.096;2023-04-08T15:23:53;12.60;99.90
43185;DHT22;28803;52.308;19.096;2023-04-08T15:26:21;12.50;99.90
43185;DHT22;28803;52.308;19.096;2023-04-08T15:28:48;12.40;99.90
43185;DHT22;28803;52.308;19.096;2023-04-08T15:31:16;12.30;99.90
43185;DHT22;28803;52.308;19.096;2023-04-08T15:33:43;12.30;99.90
43185;DHT22;28803;52.308;19.096;2023-04-08T15:36:13;12.30;99.90
43185;DHT22;28803;52.308;19.096;2023-04-08T15:38:50;12.30;99.90
43185;DHT22;28803;52.308;19.096;2023-04-08T15:41:18;12.30;99.90
43185;DHT22;28803;52.308;19.096;2023-04-08T15:43:46;12.30;99.90
43185;DHT22;28803;52.308;19.096;2023-04-08T15:46:17;12.50;99.90
43185;DHT22;28803;52.308;19.096;2023-04-08T15:48:49;12.60;99.90
43185;DHT22;28803;52.308;19.096;2023-04-08T15:51:16;12.90;99.90
43185;DHT22;28803;52.308;19.096;2023-04-08T15:53:44;13.00;99.90
43185;DHT22;28803;52.308;19.096;2023-04-08T15:56:15;13.10;99.90
43185;DHT22;28803;52.308;19.096;2023-04-08T15:58:44;13.10;99.90
43185;DHT22;28803;52.308;19.096;2023-04-08T16:01:12;13.10;99.90
43185;DHT22;28803;52.308;19.096;2023-04-08T16:03:40;13.00;99.90
43185;DHT22;28803;52.308;19.096;2023-04-08T16:06:08;12.80;99.90